createdAt,value
2019-03-23T00:01:03.949Z,102352.41
2019-03-23T00:03:35.660Z,102359.45
2019-03-23T00:06:06.766Z,102351.69
2019-03-23T00:08:37.955Z,102346.66
2019-03-23T00:11:08.717Z,102339.02
2019-03-23T00:13:39.281Z,102337.45
2019-03-23T00:16:10.067Z,102332.66
2019-03-23T00:18:41.629Z,102333.55
2019-03-23T00:21:12.676Z,102333.19
2019-03-23T00:23:43.863Z,102329.15
2019-03-23T00:26:15.037Z,102323.86
2019-03-23T00:28:46.177Z,102325.55
2019-03-23T00:31:17.246Z,102312.59
2019-03-23T00:33:47.924Z,102314.52
2019-03-23T00:36:18.540Z,102313.25
2019-03-23T00:38:49.621Z,102315.06
2019-03-23T00:41:20.808Z,102311.42
2019-03-23T00:43:51.979Z,102305.45
2019-03-23T00:46:23.024Z,102308.59
2019-03-23T00:48:53.868Z,102309.08
2019-03-23T00:51:24.893Z,102306.22
2019-03-23T00:53:55.844Z,102301.83
2019-03-23T00:56:26.616Z,102299.88
2019-03-23T00:58:57.955Z,102297.53
2019-03-23T01:01:28.836Z,102289.77
2019-03-23T01:04:00.742Z,102288.85
2019-03-23T01:06:32.971Z,102281.70
2019-03-23T01:09:05.297Z,102276.89
2019-03-23T01:11:36.541Z,102279.86
2019-03-23T01:14:07.884Z,102277.79
2019-03-23T01:16:39.011Z,102275.56
2019-03-23T01:19:09.838Z,102275.93
2019-03-23T01:21:40.686Z,102267.23
2019-03-23T01:24:11.909Z,102267.86
2019-03-23T01:26:42.715Z,102262.29
2019-03-23T01:29:13.594Z,102256.95
2019-03-23T01:31:44.767Z,102255.51
2019-03-23T01:34:16.722Z,102257.70
2019-03-23T01:36:47.704Z,102251.31
2019-03-23T01:39:18.714Z,102246.65
2019-03-23T01:41:49.685Z,102250.09
2019-03-23T01:44:21.115Z,102252.41
2019-03-23T01:46:51.819Z,102252.80
2019-03-23T01:49:23.186Z,102252.13
2019-03-23T01:51:54.238Z,102251.08
2019-03-23T01:54:25.682Z,102254.33
2019-03-23T01:56:56.745Z,102247.58
2019-03-23T01:59:27.726Z,102252.91
2019-03-23T02:01:58.369Z,102254.05
2019-03-23T02:04:29.382Z,102248.03
2019-03-23T02:07:00.124Z,102241.63
2019-03-23T02:09:31.215Z,102238.24
2019-03-23T02:12:02.426Z,102241.97
2019-03-23T02:14:34.643Z,102239.16
2019-03-23T02:17:05.769Z,102237.69
2019-03-23T02:19:36.544Z,102235.11
2019-03-23T02:22:07.295Z,102229.31
2019-03-23T02:24:39.230Z,102234.20
2019-03-23T02:27:10.243Z,102232.39
2019-03-23T02:29:41.010Z,102237.34
2019-03-23T02:32:12.418Z,102236.27
2019-03-23T02:34:43.366Z,102238.67
2019-03-23T02:37:26.912Z,102233.72
2019-03-23T02:39:46.853Z,102233.33
2019-03-23T02:42:17.717Z,102235.03
2019-03-23T02:44:49.481Z,102229.58
2019-03-23T02:47:20.247Z,102231.69
2019-03-23T02:49:54.488Z,102228.47
2019-03-23T02:52:25.225Z,102233.67
2019-03-23T02:54:55.890Z,102231.19
2019-03-23T02:57:26.587Z,102226.54
2019-03-23T02:59:57.772Z,102231.58
2019-03-23T03:02:28.596Z,102225.34
2019-03-23T03:05:00.771Z,102226.51
2019-03-23T03:07:41.784Z,102224.41
2019-03-23T03:10:06.576Z,102223.16
2019-03-23T03:12:37.722Z,102224.16
2019-03-23T03:15:09.930Z,102226.23
2019-03-23T03:17:40.817Z,102218.31
2019-03-23T03:20:11.885Z,102220.16
2019-03-23T03:22:42.937Z,102224.67
2019-03-23T03:25:13.680Z,102216.64
2019-03-23T03:27:45.093Z,102214.41
2019-03-23T03:30:16.263Z,102214.80
2019-03-23T03:32:47.316Z,102214.54
2019-03-23T03:35:18.349Z,102211.34
2019-03-23T03:37:56.311Z,102210.25
2019-03-23T03:40:21.397Z,102210.08
2019-03-23T03:42:52.282Z,102209.56
2019-03-23T03:45:26.956Z,102212.66
2019-03-23T03:47:57.869Z,102208.38
2019-03-23T03:50:28.618Z,102210.14
2019-03-23T03:52:59.857Z,102205.88
2019-03-23T03:55:31.085Z,102200.66
2019-03-23T03:58:03.089Z,102203.72
2019-03-23T04:00:33.967Z,102208.84
2019-03-23T04:03:05.014Z,102208.64
2019-03-23T04:05:36.214Z,102201.05
2019-03-23T04:08:11.735Z,102202.11
2019-03-23T04:10:39.602Z,102204.70
2019-03-23T04:13:10.386Z,102197.13
2019-03-23T04:15:41.543Z,102199.83
2019-03-23T04:18:12.593Z,102196.86
2019-03-23T04:20:43.738Z,102192.09
2019-03-23T04:23:15.000Z,102188.83
2019-03-23T04:25:45.984Z,102193.25
2019-03-23T04:28:17.028Z,102192.22
2019-03-23T04:30:47.644Z,102184.77
2019-03-23T04:33:18.493Z,102181.73
2019-03-23T04:35:49.700Z,102176.31
2019-03-23T04:38:22.901Z,102175.70
2019-03-23T04:40:53.005Z,102171.92
2019-03-23T04:43:23.948Z,102173.83
2019-03-23T04:45:54.753Z,102176.50
2019-03-23T04:48:26.013Z,102171.84
2019-03-23T04:50:56.991Z,102167.16
2019-03-23T04:53:27.724Z,102166.64
2019-03-23T04:55:58.644Z,102162.17
2019-03-23T04:58:29.743Z,102167.44
2019-03-23T05:01:00.683Z,102166.08
2019-03-23T05:03:31.922Z,102167.70
2019-03-23T05:06:02.906Z,102166.98
2019-03-23T05:08:34.157Z,102160.15
2019-03-23T05:11:05.335Z,102157.86
2019-03-23T05:13:36.815Z,102159.05
2019-03-23T05:16:07.855Z,102157.53
2019-03-23T05:18:39.063Z,102154.73
2019-03-23T05:21:10.356Z,102162.47
2019-03-23T05:23:41.767Z,102164.22
2019-03-23T05:26:13.615Z,102164.89
2019-03-23T05:28:44.863Z,102163.67
2019-03-23T05:31:15.924Z,102159.80
2019-03-23T05:33:46.785Z,102158.24
2019-03-23T05:36:18.060Z,102160.08
2019-03-23T05:38:48.609Z,102158.80
2019-03-23T05:41:19.804Z,102155.75
2019-03-23T05:43:50.868Z,102153.10
2019-03-23T05:46:21.695Z,102153.80
2019-03-23T05:48:52.899Z,102150.62
2019-03-23T05:51:24.247Z,102152.26
2019-03-23T05:53:55.266Z,102147.91
2019-03-23T05:56:26.216Z,102149.14
2019-03-23T05:58:57.140Z,102149.27
2019-03-23T06:01:28.146Z,102145.21
2019-03-23T06:03:59.142Z,102147.47
2019-03-23T06:06:31.017Z,102147.48
2019-03-23T06:09:02.174Z,102141.73
2019-03-23T06:11:33.211Z,102136.61
2019-03-23T06:14:05.129Z,102133.52
2019-03-23T06:16:36.433Z,102130.50
2019-03-23T06:19:07.483Z,102132.69
2019-03-23T06:21:38.388Z,102132.22
2019-03-23T06:24:09.356Z,102131.23
2019-03-23T06:26:40.640Z,102128.13
2019-03-23T06:29:12.252Z,102122.20
2019-03-23T06:31:43.274Z,102122.11
2019-03-23T06:34:14.180Z,102111.26
2019-03-23T06:36:45.296Z,102104.92
2019-03-23T06:39:16.241Z,102102.59
2019-03-23T06:41:47.506Z,102101.42
2019-03-23T06:44:18.927Z,102110.89
2019-03-23T06:46:49.970Z,102108.30
2019-03-23T06:49:21.127Z,102107.11
2019-03-23T06:51:52.386Z,102101.16
2019-03-23T06:54:23.351Z,102099.70
2019-03-23T06:56:57.981Z,102088.16
2019-03-23T06:59:29.084Z,102091.88
2019-03-23T07:02:01.891Z,102091.20
2019-03-23T07:04:33.090Z,102085.72
2019-03-23T07:07:04.186Z,102090.98
2019-03-23T07:09:35.098Z,102098.06
2019-03-23T07:12:06.103Z,102099.45
2019-03-23T07:14:37.449Z,102096.89
2019-03-23T07:17:09.829Z,102091.23
2019-03-23T07:19:42.391Z,102081.45
2019-03-23T07:22:13.522Z,102066.78
2019-03-23T07:24:44.994Z,102060.58
2019-03-23T07:27:16.507Z,102060.81
2019-03-23T07:29:47.471Z,102063.05
2019-03-23T07:32:18.721Z,102059.45
2019-03-23T07:34:50.152Z,102067.37
2019-03-23T07:37:21.220Z,102055.83
2019-03-23T07:39:51.918Z,102057.72
2019-03-23T07:42:22.829Z,102046.79
2019-03-23T07:44:54.129Z,102036.03
2019-03-23T07:47:25.435Z,102039.40
2019-03-23T07:49:56.766Z,102039.76
2019-03-23T07:52:27.632Z,102037.60
2019-03-23T07:55:01.815Z,102037.45
2019-03-23T07:57:33.125Z,102034.34
2019-03-23T08:00:08.353Z,102032.55
2019-03-23T08:02:39.702Z,102032.39
2019-03-23T08:05:11.006Z,102029.33
2019-03-23T08:07:42.919Z,102027.13
2019-03-23T08:10:16.919Z,102025.55
2019-03-23T08:12:47.961Z,102017.27
2019-03-23T08:15:18.977Z,102021.98
2019-03-23T08:17:50.219Z,102016.59
2019-03-23T08:20:22.265Z,102015.20
2019-03-23T08:22:54.386Z,102018.63
2019-03-23T08:25:29.417Z,102021.94
2019-03-23T08:28:01.018Z,102016.30
2019-03-23T08:30:31.624Z,102012.78
2019-03-23T08:33:02.873Z,102008.23
2019-03-23T08:35:35.413Z,102002.79
2019-03-23T08:38:06.794Z,101998.87
2019-03-23T08:40:38.184Z,102004.62
2019-03-23T08:43:09.009Z,102004.38
2019-03-23T08:45:40.875Z,102004.35
2019-03-23T08:48:12.008Z,102009.92
2019-03-23T08:50:43.200Z,102002.80
2019-03-23T08:53:14.347Z,102000.25
2019-03-23T08:55:45.302Z,102000.06
2019-03-23T08:58:15.732Z,101997.28
2019-03-23T09:00:46.251Z,102004.03
2019-03-23T09:03:16.667Z,101998.28
2019-03-23T09:05:47.862Z,101989.97
2019-03-23T09:08:18.651Z,101985.09
2019-03-23T09:10:49.018Z,101973.59
2019-03-23T09:13:19.787Z,101967.80
2019-03-23T09:15:50.545Z,101967.41
2019-03-23T09:18:22.166Z,101961.12
2019-03-23T09:20:52.420Z,101959.54
2019-03-23T09:23:23.467Z,101948.30
2019-03-23T09:25:54.143Z,101949.34
2019-03-23T09:28:24.568Z,101944.09
2019-03-23T09:30:55.155Z,101938.37
2019-03-23T09:33:25.679Z,101935.13
2019-03-23T09:35:56.162Z,101931.87
2019-03-23T09:38:26.551Z,101927.96
2019-03-23T09:40:56.975Z,101927.16
2019-03-23T09:43:27.392Z,101922.78
2019-03-23T09:45:57.938Z,101920.72
2019-03-23T09:48:28.385Z,101922.66
2019-03-23T09:50:59.010Z,101918.08
2019-03-23T09:53:30.490Z,101918.00
2019-03-23T09:56:00.994Z,101914.52
2019-03-23T09:58:31.862Z,101913.27
2019-03-23T10:01:02.405Z,101914.03
2019-03-23T10:03:32.876Z,101915.29
2019-03-23T10:09:10.846Z,101902.03
2019-03-23T10:11:41.356Z,101912.20
2019-03-23T10:14:11.954Z,101904.19
2019-03-23T10:16:42.511Z,101897.73
2019-03-23T10:19:13.074Z,101897.63
2019-03-23T10:21:43.603Z,101903.70
2019-03-23T10:24:14.063Z,101896.52
2019-03-23T10:26:44.609Z,101891.38
2019-03-23T10:29:17.489Z,101886.38
2019-03-23T10:31:49.511Z,101880.09
2019-03-23T10:34:20.063Z,101878.42
2019-03-23T10:36:53.919Z,101877.36
2019-03-23T10:39:28.619Z,101878.36
2019-03-23T10:41:59.073Z,101868.88
2019-03-23T10:44:29.645Z,101867.92
2019-03-23T10:47:00.355Z,101875.14
2019-03-23T10:49:33.175Z,101874.95
2019-03-23T10:52:13.687Z,101865.32
2019-03-23T10:54:45.378Z,101862.71
2019-03-23T10:57:23.359Z,101850.68
2019-03-23T10:59:59.236Z,101853.87
2019-03-23T11:02:31.839Z,101852.77
2019-03-23T11:05:07.597Z,101850.48
2019-03-23T11:07:41.742Z,101846.92
2019-03-23T11:10:13.900Z,101841.70
2019-03-23T11:12:48.905Z,101844.45
2019-03-23T11:15:20.575Z,101850.97
2019-03-23T11:17:51.503Z,101853.52
2019-03-23T11:20:24.615Z,101849.27
2019-03-23T11:22:58.827Z,101850.16
2019-03-23T11:25:29.464Z,101845.00
2019-03-23T11:28:00.807Z,101847.63
2019-03-23T11:30:31.806Z,101843.80
2019-03-23T11:33:04.604Z,101836.40
2019-03-23T11:35:35.220Z,101837.19
2019-03-23T11:38:06.767Z,101836.95
2019-03-23T11:40:39.316Z,101836.42
2019-03-23T11:43:10.239Z,101835.88
2019-03-23T11:45:41.975Z,101836.22
2019-03-23T11:48:14.274Z,101834.95
2019-03-23T11:50:44.866Z,101833.17
2019-03-23T11:53:15.846Z,101832.78
2019-03-23T11:55:50.206Z,101825.70
2019-03-23T11:58:21.207Z,101816.23
2019-03-23T12:00:52.286Z,101811.04
2019-03-23T12:03:23.783Z,101801.76
2019-03-23T12:05:54.784Z,101800.30
2019-03-23T12:08:25.903Z,101793.75
2019-03-23T12:11:02.961Z,101795.93
2019-03-23T12:13:53.718Z,101786.24
2019-03-23T12:16:24.879Z,101777.36
2019-03-23T12:18:55.542Z,101784.30
2019-03-23T12:21:26.326Z,101782.44
2019-03-23T12:23:57.727Z,101774.33
2019-03-23T12:26:28.886Z,101771.09
2019-03-23T12:28:59.984Z,101769.58
2019-03-23T12:31:31.061Z,101768.69
2019-03-23T12:34:02.263Z,101765.27
2019-03-23T12:36:33.421Z,101761.54
2019-03-23T12:39:05.565Z,101758.27
2019-03-23T12:41:36.492Z,101754.46
2019-03-23T12:44:07.261Z,101750.95
2019-03-23T12:46:47.861Z,101747.95
2019-03-23T12:49:11.129Z,101746.92
2019-03-23T12:51:42.270Z,101751.30
2019-03-23T12:54:14.436Z,101742.14
2019-03-23T12:56:45.458Z,101752.08
2019-03-23T12:59:16.134Z,101748.04
2019-03-23T13:01:49.672Z,101741.64
2019-03-23T13:04:20.333Z,101729.92
2019-03-23T13:06:51.236Z,101739.69
2019-03-23T13:09:27.171Z,101725.03
2019-03-23T13:12:00.972Z,101729.88
2019-03-23T13:14:40.217Z,101721.99
2019-03-23T13:20:09.266Z,101719.90
2019-03-23T13:22:40.298Z,101717.18
2019-03-23T13:25:11.193Z,101715.63
2019-03-23T13:27:42.376Z,101711.00
2019-03-23T13:30:15.819Z,101707.61
2019-03-23T13:32:47.444Z,101703.84
2019-03-23T13:35:18.353Z,101708.05
2019-03-23T13:37:49.656Z,101704.63
2019-03-23T13:40:21.100Z,101699.97
2019-03-23T13:42:53.843Z,101694.96
2019-03-23T13:45:25.225Z,101700.27
2019-03-23T13:47:56.468Z,101684.47
2019-03-23T13:50:29.923Z,101684.47
2019-03-23T13:53:02.231Z,101692.02
2019-03-23T13:55:34.786Z,101688.50
2019-03-23T13:58:08.638Z,101697.33
2019-03-23T14:00:40.472Z,101687.38
2019-03-23T14:03:11.829Z,101681.35
2019-03-23T14:05:48.631Z,101684.26
2019-03-23T14:08:20.193Z,101683.84
2019-03-23T14:10:51.264Z,101681.25
2019-03-23T14:13:22.951Z,101679.65
2019-03-23T14:15:55.184Z,101678.42
2019-03-23T14:18:26.122Z,101677.45
2019-03-23T14:20:57.505Z,101661.31
2019-03-23T14:23:29.304Z,101663.19
2019-03-23T14:26:01.905Z,101663.22
2019-03-23T14:28:33.564Z,101658.52
2019-03-23T14:31:04.568Z,101659.89
2019-03-23T14:33:35.266Z,101658.57
2019-03-23T14:36:06.602Z,101653.42
2019-03-23T14:38:37.727Z,101653.61
2019-03-23T14:41:08.742Z,101647.18
2019-03-23T14:43:41.035Z,101642.52
2019-03-23T14:46:15.293Z,101643.89
2019-03-23T14:48:46.340Z,101644.86
2019-03-23T14:51:17.698Z,101645.81
2019-03-23T14:53:48.298Z,101651.09
2019-03-23T14:56:20.657Z,101644.80
2019-03-23T14:58:53.086Z,101646.17
2019-03-23T15:01:23.919Z,101645.51
2019-03-23T15:03:55.136Z,101646.08
2019-03-23T15:06:27.120Z,101635.85
2019-03-23T15:09:01.077Z,101639.68
2019-03-23T15:11:34.600Z,101636.34
2019-03-23T15:14:06.976Z,101636.66
2019-03-23T15:16:39.067Z,101633.52
2019-03-23T15:19:11.676Z,101633.79
2019-03-23T15:21:44.829Z,101634.82
2019-03-23T15:24:16.258Z,101631.14
2019-03-23T15:26:47.877Z,101628.86
2019-03-23T15:30:57.722Z,101634.60
2019-03-23T15:32:21.233Z,101624.55
2019-03-23T15:34:54.218Z,101629.44
2019-03-23T15:37:26.278Z,101626.72
2019-03-23T15:39:57.205Z,101628.25
2019-03-23T15:42:28.396Z,101624.88
2019-03-23T15:45:00.819Z,101627.80
2019-03-23T15:47:33.858Z,101627.70
2019-03-23T15:50:08.815Z,101628.95
2019-03-23T15:52:41.338Z,101631.22
2019-03-23T15:55:12.177Z,101636.00
2019-03-23T15:57:43.498Z,101641.44
2019-03-23T16:00:16.423Z,101636.89
2019-03-23T16:02:50.241Z,101641.08
2019-03-23T16:05:22.771Z,101646.61
2019-03-23T16:08:06.935Z,101642.80
2019-03-23T16:10:38.052Z,101643.59
2019-03-23T16:13:08.990Z,101647.92
2019-03-23T16:15:40.335Z,101652.38
2019-03-23T16:18:14.693Z,101660.38
2019-03-23T16:20:48.868Z,101662.33
2019-03-23T16:23:30.016Z,101659.81
2019-03-23T16:26:14.006Z,101661.38
2019-03-23T16:28:45.250Z,101665.89
2019-03-23T16:31:28.746Z,101669.94
2019-03-23T16:34:10.182Z,101673.64
2019-03-23T16:36:44.369Z,101686.08
2019-03-23T16:39:15.437Z,101690.77
2019-03-23T16:41:47.675Z,101694.29
2019-03-23T16:44:24.676Z,101703.98
2019-03-23T16:47:04.815Z,101712.87
2019-03-23T16:49:37.828Z,101723.85
2019-03-23T16:52:11.631Z,101735.20
2019-03-23T16:54:48.398Z,101729.59
2019-03-23T16:57:23.633Z,101729.88
2019-03-23T16:59:58.902Z,101732.23
2019-03-23T17:02:59.479Z,101733.07
2019-03-23T17:05:45.009Z,101732.14
2019-03-23T17:15:27.972Z,101760.68
2019-03-23T17:18:22.553Z,101768.95
2019-03-23T17:27:09.968Z,101778.49
2019-03-23T17:29:56.274Z,101799.20
2019-03-23T17:35:46.453Z,101810.55
2019-03-23T17:38:27.003Z,101820.20
2019-03-23T17:41:19.004Z,101821.39
2019-03-23T17:47:01.793Z,101828.50
2019-03-23T17:54:00.505Z,101854.84
2019-03-23T17:55:42.755Z,101858.19
2019-03-23T17:58:13.895Z,101862.30
2019-03-23T18:01:01.331Z,101867.97
2019-03-23T18:03:32.141Z,101877.94
2019-03-23T18:06:03.085Z,101882.98
2019-03-23T18:08:33.788Z,101891.14
2019-03-23T18:11:04.404Z,101899.13
2019-03-23T18:13:34.948Z,101898.77
2019-03-23T18:16:05.692Z,101904.36
2019-03-23T18:18:40.383Z,101902.60
2019-03-23T18:21:12.341Z,101905.55
2019-03-23T18:23:42.997Z,101912.69
2019-03-23T18:26:18.084Z,101920.14
2019-03-23T18:28:48.829Z,101926.48
2019-03-23T18:31:19.373Z,101930.33
2019-03-23T18:33:51.189Z,101928.85
2019-03-23T18:36:38.669Z,101922.42
2019-03-23T18:39:11.148Z,101930.88
2019-03-23T18:41:42.051Z,101926.19
2019-03-23T18:44:16.372Z,101933.09
2019-03-23T18:46:46.509Z,101935.22
2019-03-23T18:49:20.720Z,101940.16
2019-03-23T18:51:53.189Z,101933.31
2019-03-23T18:54:26.917Z,101941.87
2019-03-23T18:56:58.979Z,101945.05
2019-03-23T18:59:30.381Z,101949.70
2019-03-23T19:02:12.677Z,101946.69
2019-03-23T19:04:45.108Z,101948.20
2019-03-23T19:07:21.651Z,101957.12
2019-03-23T19:09:55.560Z,101958.22
2019-03-23T19:12:31.813Z,101967.23
2019-03-23T19:18:10.889Z,101969.73
2019-03-23T19:20:58.549Z,101965.02
2019-03-23T19:23:56.902Z,101973.23
2019-03-23T19:26:32.828Z,101975.01
2019-03-23T19:29:05.227Z,101986.45
2019-03-23T19:31:40.652Z,101988.45
2019-03-23T19:34:14.125Z,101988.85
2019-03-23T19:36:46.232Z,101988.77
2019-03-23T19:42:28.013Z,101990.14
2019-03-23T19:45:14.662Z,101993.64
2019-03-23T19:47:55.301Z,102002.55
2019-03-23T19:50:30.053Z,102000.48
2019-03-23T19:53:04.907Z,102006.27
2019-03-23T19:55:41.317Z,102003.77
2019-03-23T19:58:15.469Z,102013.79
2019-03-23T20:00:48.406Z,102009.77
2019-03-23T20:03:21.627Z,102017.46
2019-03-23T20:05:53.588Z,102020.56
2019-03-23T20:08:31.193Z,102014.66
2019-03-23T20:11:07.466Z,102021.06
2019-03-23T20:13:38.387Z,102017.77
2019-03-23T20:16:12.204Z,102015.05
2019-03-23T20:19:08.561Z,102020.97
2019-03-23T20:21:57.573Z,102028.27
2019-03-23T20:24:55.216Z,102026.59
2019-03-23T20:27:34.602Z,102034.06
2019-03-23T20:30:20.254Z,102047.67
2019-03-23T20:32:52.836Z,102040.72
2019-03-23T20:36:01.062Z,102044.72
2019-03-23T20:39:07.315Z,102054.88
2019-03-23T20:42:10.734Z,102051.11
2019-03-23T20:44:58.768Z,102056.91
2019-03-23T20:47:58.607Z,102055.73
2019-03-23T20:51:06.998Z,102061.07
2019-03-23T20:53:58.008Z,102057.84
2019-03-23T20:56:48.514Z,102059.55
2019-03-23T20:59:27.168Z,102061.92
2019-03-23T21:02:13.566Z,102056.24
2019-03-23T21:05:21.085Z,102052.84
2019-03-23T21:08:30.200Z,102050.05
2019-03-23T21:11:10.947Z,102054.93
2019-03-23T21:17:51.092Z,102052.04
2019-03-23T21:20:25.226Z,102056.05
2019-03-23T21:22:57.446Z,102058.55
2019-03-23T21:25:29.802Z,102065.35
2019-03-23T21:28:01.371Z,102068.09
2019-03-23T21:30:32.584Z,102071.25
2019-03-23T21:33:03.676Z,102067.63
2019-03-23T21:35:36.765Z,102068.66
2019-03-23T21:38:07.703Z,102066.81
2019-03-23T21:40:39.585Z,102067.39
2019-03-23T21:43:11.280Z,102070.95
2019-03-23T21:45:42.813Z,102068.55
2019-03-23T21:48:14.039Z,102061.58
2019-03-23T21:50:47.633Z,102066.84
2019-03-23T21:53:17.518Z,102062.86
2019-03-23T21:55:48.759Z,102064.56
2019-03-23T21:58:19.734Z,102071.31
2019-03-23T22:00:50.806Z,102074.31
2019-03-23T22:03:22.837Z,102072.27
2019-03-23T22:05:53.718Z,102076.70
2019-03-23T22:08:24.918Z,102077.16
2019-03-23T22:11:02.551Z,102074.57
2019-03-23T22:13:33.920Z,102083.41
2019-03-23T22:16:06.320Z,102081.70
2019-03-23T22:18:40.069Z,102082.11
2019-03-23T22:21:11.717Z,102089.00
2019-03-23T22:23:43.324Z,102086.44
2019-03-23T22:26:14.526Z,102082.54
2019-03-23T22:28:46.757Z,102088.80
2019-03-23T22:31:18.317Z,102090.66
2019-03-23T22:33:50.845Z,102089.77
2019-03-23T22:36:22.931Z,102094.06
2019-03-23T22:38:54.532Z,102086.91
2019-03-23T22:41:25.653Z,102084.33
2019-03-23T22:43:56.670Z,102081.93
2019-03-23T22:46:29.933Z,102091.06
2019-03-23T22:49:00.781Z,102090.21
2019-03-23T22:51:31.690Z,102092.02
2019-03-23T22:54:03.057Z,102095.51
2019-03-23T22:56:34.212Z,102095.41
2019-03-23T22:59:04.849Z,102094.87
2019-03-23T23:01:35.695Z,102100.75
2019-03-23T23:04:07.131Z,102104.00
2019-03-23T23:06:38.331Z,102102.21
2019-03-23T23:09:10.250Z,102106.10
2019-03-23T23:11:41.905Z,102110.14
2019-03-23T23:14:15.696Z,102112.13
2019-03-23T23:16:47.169Z,102114.08
2019-03-23T23:19:18.491Z,102112.92
2019-03-23T23:21:50.581Z,102114.27
2019-03-23T23:24:21.292Z,102108.03
2019-03-23T23:26:52.292Z,102108.31
2019-03-23T23:29:22.973Z,102113.22
2019-03-23T23:31:55.252Z,102110.27
2019-03-23T23:34:26.057Z,102109.47
2019-03-23T23:36:57.609Z,102111.70
2019-03-23T23:39:28.571Z,102112.34
2019-03-23T23:42:00.063Z,102112.88
2019-03-23T23:44:30.991Z,102118.33
2019-03-23T23:47:01.858Z,102114.43
2019-03-23T23:49:32.691Z,102124.30
2019-03-23T23:52:03.852Z,102130.92
2019-03-23T23:54:35.085Z,102121.98
2019-03-23T23:57:06.073Z,102118.09
2019-03-23T23:59:37.140Z,102117.45
